createdAt,value
2022-10-17T00:01:07.174Z,9.13
2022-10-17T00:03:46.506Z,8.45
2022-10-17T00:06:22.392Z,8.95
2022-10-17T00:09:15.792Z,7.85
2022-10-17T00:12:02.260Z,7.95
2022-10-17T00:14:57.041Z,8.93
2022-10-17T00:17:43.334Z,8.28
2022-10-17T00:20:25.372Z,8.60
2022-10-17T00:23:01.178Z,8.63
2022-10-17T00:25:59.491Z,8.00
2022-10-17T00:28:56.140Z,8.05
2022-10-17T00:31:39.206Z,7.65
2022-10-17T00:34:31.425Z,8.40
2022-10-17T00:37:30.421Z,7.55
2022-10-17T00:40:11.389Z,6.92
2022-10-17T00:42:53.306Z,7.72
2022-10-17T00:45:30.407Z,7.60
2022-10-17T00:48:03.641Z,7.97
2022-10-17T00:50:34.211Z,7.28
2022-10-17T00:53:04.305Z,7.72
2022-10-17T00:55:36.320Z,7.55
2022-10-17T00:58:06.302Z,7.37
2022-10-17T01:00:34.386Z,7.60
2022-10-17T01:03:02.316Z,7.60
2022-10-17T01:05:30.353Z,8.00
2022-10-17T01:08:00.240Z,7.17
2022-10-17T01:10:39.357Z,8.48
2022-10-17T01:13:15.206Z,7.20
2022-10-17T01:16:15.805Z,8.20
2022-10-17T01:18:58.665Z,8.00
2022-10-17T01:21:46.543Z,8.93
2022-10-17T01:24:39.244Z,7.72
2022-10-17T01:27:18.254Z,7.05
2022-10-17T01:30:27.739Z,8.10
2022-10-17T01:33:18.728Z,9.25
2022-10-17T01:36:12.953Z,9.28
2022-10-17T01:39:14.933Z,8.85
2022-10-17T01:41:57.711Z,9.10
2022-10-17T01:44:46.395Z,9.23
2022-10-17T01:47:19.377Z,9.68
2022-10-17T01:49:51.773Z,10.05
2022-10-17T01:52:36.561Z,11.28
2022-10-17T01:55:11.920Z,9.75
2022-10-17T01:57:48.047Z,9.38
2022-10-17T02:00:21.579Z,9.28
2022-10-17T02:02:56.457Z,9.33
2022-10-17T02:05:29.325Z,9.35
2022-10-17T02:07:57.537Z,8.90
2022-10-17T02:10:49.411Z,9.18
2022-10-17T02:13:28.652Z,8.80
2022-10-17T02:16:05.287Z,9.23
2022-10-17T02:18:58.741Z,10.90
2022-10-17T02:21:44.198Z,8.73
2022-10-17T02:24:41.758Z,8.63
2022-10-17T02:27:37.802Z,8.75
2022-10-17T02:30:24.073Z,9.50
2022-10-17T02:33:11.690Z,8.70
2022-10-17T02:35:45.272Z,8.85
2022-10-17T02:38:16.689Z,9.20
2022-10-17T02:41:01.166Z,9.05
2022-10-17T02:44:27.313Z,9.28
2022-10-17T02:47:06.177Z,8.98
2022-10-17T02:49:41.332Z,8.43
2022-10-17T02:52:33.529Z,8.18
2022-10-17T02:55:17.787Z,8.53
2022-10-17T02:58:13.537Z,7.72
2022-10-17T03:00:47.821Z,8.23
2022-10-17T03:03:30.761Z,8.65
2022-10-17T03:06:02.625Z,7.72
2022-10-17T03:08:36.104Z,7.80
2022-10-17T03:11:48.763Z,7.42
2022-10-17T03:14:40.377Z,7.12
2022-10-17T03:17:25.897Z,8.00
2022-10-17T03:19:54.033Z,7.42
2022-10-17T03:22:22.083Z,6.60
2022-10-17T03:24:50.373Z,6.95
2022-10-17T03:27:18.473Z,7.45
2022-10-17T03:29:46.766Z,6.53
2022-10-17T03:32:15.961Z,7.00
2022-10-17T03:34:44.188Z,7.22
2022-10-17T03:37:12.305Z,6.42
2022-10-17T03:39:40.743Z,6.85
2022-10-17T03:42:09.116Z,6.90
2022-10-17T03:44:37.810Z,7.40
2022-10-17T03:47:08.159Z,8.08
2022-10-17T03:49:35.697Z,9.95
2022-10-17T03:52:03.709Z,12.20
2022-10-17T03:54:31.853Z,12.55
2022-10-17T03:57:02.501Z,10.63
2022-10-17T03:59:36.198Z,8.98
2022-10-17T04:02:06.135Z,9.33
2022-10-17T04:04:37.504Z,9.43
2022-10-17T04:13:36.870Z,8.43
2022-10-17T04:16:10.124Z,8.45
2022-10-17T04:18:40.446Z,7.90
2022-10-17T04:21:11.072Z,8.38
2022-10-17T04:23:39.670Z,9.18
2022-10-17T04:26:09.479Z,9.75
2022-10-17T04:31:10.064Z,11.15
2022-10-17T04:33:40.545Z,11.47
2022-10-17T04:36:16.267Z,12.25
2022-10-17T04:38:44.020Z,11.20
2022-10-17T04:41:16.750Z,9.78
2022-10-17T04:43:48.484Z,9.08
2022-10-17T04:46:16.085Z,8.65
2022-10-17T04:48:45.612Z,8.73
2022-10-17T04:51:18.797Z,9.00
2022-10-17T04:54:07.236Z,8.53
2022-10-17T04:56:36.555Z,9.10
2022-10-17T04:59:04.418Z,7.70
2022-10-17T05:01:33.654Z,10.45
2022-10-17T05:04:01.499Z,9.68
2022-10-17T05:06:31.076Z,7.97
2022-10-17T05:09:12.871Z,8.20
2022-10-17T05:11:43.147Z,8.15
2022-10-17T05:14:11.397Z,8.50
2022-10-17T05:16:39.462Z,8.08
2022-10-17T05:19:11.055Z,7.10
2022-10-17T05:21:41.150Z,7.42
2022-10-17T05:24:11.685Z,7.15
2022-10-17T05:26:40.875Z,8.05
2022-10-17T05:29:13.934Z,8.35
2022-10-17T05:31:44.135Z,9.03
2022-10-17T05:38:35.920Z,7.40
2022-10-17T05:41:10.107Z,7.20
2022-10-17T05:43:41.303Z,7.50
2022-10-17T05:46:10.304Z,6.75
2022-10-17T05:49:19.436Z,6.75
2022-10-17T05:52:12.881Z,6.45
2022-10-17T05:54:49.043Z,7.80
2022-10-17T06:03:54.837Z,7.37
2022-10-17T06:06:29.222Z,5.70
2022-10-17T06:09:01.147Z,6.40
2022-10-17T06:11:46.720Z,6.72
2022-10-17T06:14:44.684Z,6.25
2022-10-17T06:17:22.355Z,6.58
2022-10-17T06:22:54.239Z,6.72
2022-10-17T06:25:24.161Z,7.00
2022-10-17T06:30:22.584Z,8.13
2022-10-17T06:32:53.517Z,6.85
2022-10-17T06:35:21.961Z,7.10
2022-10-17T06:37:50.059Z,6.90
2022-10-17T06:40:18.826Z,7.25
2022-10-17T06:42:47.548Z,6.72
2022-10-17T06:45:26.230Z,7.35
2022-10-17T06:48:02.768Z,6.67
2022-10-17T06:50:44.383Z,6.45
2022-10-17T06:53:18.291Z,6.67
2022-10-17T06:55:54.940Z,7.08
2022-10-17T06:58:42.118Z,7.58
2022-10-17T07:01:13.473Z,8.18
2022-10-17T07:03:43.227Z,7.40
2022-10-17T07:06:11.385Z,7.00
2022-10-17T07:08:45.559Z,7.50
2022-10-17T07:11:18.721Z,8.23
2022-10-17T07:13:48.336Z,7.65
2022-10-17T07:16:16.825Z,7.28
2022-10-17T07:18:51.813Z,7.03
2022-10-17T07:21:20.650Z,7.97
2022-10-17T07:23:48.589Z,9.55
2022-10-17T07:26:18.466Z,8.30
2022-10-17T07:28:51.263Z,6.97
2022-10-17T07:31:26.734Z,7.92
2022-10-17T07:33:54.953Z,8.25
2022-10-17T07:36:23.422Z,9.38
2022-10-17T07:38:52.514Z,9.48
2022-10-17T07:41:21.934Z,10.43
2022-10-17T07:43:50.809Z,8.75
2022-10-17T07:46:20.531Z,10.82
2022-10-17T07:48:48.636Z,8.25
2022-10-17T07:51:19.387Z,9.48
2022-10-17T07:53:48.903Z,8.63
2022-10-17T07:56:17.470Z,8.18
2022-10-17T07:58:45.636Z,7.42
2022-10-17T08:01:15.391Z,7.47
2022-10-17T08:03:45.593Z,7.40
2022-10-17T08:06:13.656Z,6.40
2022-10-17T08:08:42.546Z,6.70
2022-10-17T08:11:13.606Z,6.45
2022-10-17T08:13:41.941Z,7.00
2022-10-17T08:16:13.097Z,7.28
2022-10-17T08:18:43.425Z,6.90
2022-10-17T08:21:12.879Z,7.30
2022-10-17T08:23:41.097Z,6.72
2022-10-17T08:26:12.417Z,6.35
2022-10-17T08:28:41.067Z,6.65
2022-10-17T08:31:18.275Z,5.97
2022-10-17T08:33:48.338Z,5.67
2022-10-17T08:36:20.501Z,6.65
2022-10-17T08:38:52.584Z,8.20
2022-10-17T08:41:48.598Z,7.35
2022-10-17T08:44:57.283Z,7.60
2022-10-17T08:47:32.563Z,7.42
2022-10-17T08:50:05.717Z,7.10
2022-10-17T08:53:06.301Z,6.75
2022-10-17T08:55:49.521Z,6.65
2022-10-17T08:58:29.721Z,6.83
2022-10-17T09:01:12.928Z,7.00
2022-10-17T09:04:10.175Z,7.15
2022-10-17T09:06:46.478Z,6.62
2022-10-17T09:09:22.825Z,6.90
2022-10-17T09:11:59.481Z,7.45
2022-10-17T09:15:22.162Z,6.37
2022-10-17T09:18:13.203Z,6.80
2022-10-17T09:20:49.469Z,7.53
2022-10-17T09:23:22.801Z,6.25
2022-10-17T09:25:59.096Z,7.22
2022-10-17T09:28:38.141Z,6.30
2022-10-17T09:31:20.531Z,6.30
2022-10-17T09:33:55.340Z,6.62
2022-10-17T09:36:37.189Z,6.67
2022-10-17T09:39:19.440Z,6.37
2022-10-17T09:41:56.696Z,6.67
2022-10-17T09:44:45.230Z,6.03
2022-10-17T09:47:47.625Z,6.17
2022-10-17T09:50:24.359Z,8.60
2022-10-17T09:52:59.186Z,5.95
2022-10-17T09:55:42.477Z,5.92
2022-10-17T09:58:15.616Z,5.85
2022-10-17T10:01:01.890Z,6.05
2022-10-17T10:06:43.759Z,6.62
2022-10-17T10:09:39.471Z,6.35
2022-10-17T10:12:55.372Z,6.30
2022-10-17T10:19:40.039Z,6.87
2022-10-17T10:22:38.811Z,6.90
2022-10-17T10:25:19.579Z,6.85
2022-10-17T13:11:55.548Z,5.47
2022-10-17T13:14:57.825Z,5.62
2022-10-17T13:18:43.979Z,4.85
2022-10-17T13:39:55.681Z,5.22
2022-10-17T13:42:30.364Z,5.00
2022-10-17T13:45:02.942Z,5.05
2022-10-17T13:47:42.425Z,6.87
2022-10-17T13:50:44.233Z,5.62
2022-10-17T13:59:56.186Z,6.17
2022-10-17T14:02:28.791Z,5.80
2022-10-17T14:05:18.779Z,5.40
2022-10-17T14:15:29.944Z,5.55
2022-10-17T14:18:21.317Z,6.17
2022-10-17T14:28:36.465Z,6.78
2022-10-17T14:51:56.965Z,6.55
2022-10-17T15:04:45.000Z,6.72
2022-10-17T15:07:18.369Z,8.13
2022-10-17T15:09:52.368Z,8.20
2022-10-17T15:12:25.490Z,25.00
2022-10-17T15:14:55.648Z,49.73
2022-10-17T15:17:31.578Z,50.48
2022-10-17T15:20:01.639Z,37.45
2022-10-17T15:22:34.349Z,40.80
2022-10-17T15:28:42.510Z,36.42
2022-10-17T15:31:16.776Z,43.60
2022-10-17T15:33:55.071Z,64.90
2022-10-17T15:36:41.144Z,80.00
2022-10-17T15:39:12.653Z,80.32
2022-10-17T15:41:43.784Z,122.60
2022-10-17T15:44:12.002Z,127.65
2022-10-17T15:46:41.131Z,110.22
2022-10-17T15:49:15.017Z,108.40
2022-10-17T15:51:43.280Z,86.72
2022-10-17T15:54:14.036Z,72.55
2022-10-17T15:56:43.463Z,67.70
2022-10-17T15:59:33.481Z,62.03
2022-10-17T16:02:33.408Z,61.42
2022-10-17T16:08:05.128Z,44.20
2022-10-17T16:10:44.602Z,42.08
2022-10-17T16:13:26.522Z,37.80
2022-10-17T16:16:01.814Z,34.23
2022-10-17T16:22:47.569Z,28.42
2022-10-17T16:25:40.046Z,28.62
2022-10-17T16:28:17.990Z,26.35
2022-10-17T16:30:50.522Z,26.40
2022-10-17T16:33:18.465Z,26.93
2022-10-17T16:35:49.646Z,26.48
2022-10-17T16:38:20.234Z,27.15
2022-10-17T16:40:51.647Z,30.68
2022-10-17T16:43:19.711Z,36.00
2022-10-17T16:45:47.914Z,35.68
2022-10-17T16:48:17.177Z,35.33
2022-10-17T16:50:45.356Z,35.30
2022-10-17T16:53:13.259Z,30.80
2022-10-17T16:55:44.889Z,30.17
2022-10-17T16:58:17.416Z,29.45
2022-10-17T17:00:45.551Z,29.60
2022-10-17T17:03:13.603Z,33.10
2022-10-17T17:05:41.836Z,32.55
2022-10-17T17:08:25.959Z,35.17
2022-10-17T17:11:38.815Z,37.58
2022-10-17T17:14:10.535Z,37.93
2022-10-17T17:20:17.031Z,25.80
2022-10-17T17:22:56.669Z,23.87
2022-10-17T17:25:24.975Z,23.45
2022-10-17T17:27:52.903Z,22.95
2022-10-17T17:30:20.729Z,23.25
2022-10-17T17:32:48.452Z,24.57
2022-10-17T17:35:16.173Z,22.10
2022-10-17T17:37:45.804Z,23.20
2022-10-17T17:40:13.696Z,23.27
2022-10-17T17:42:47.305Z,25.72
2022-10-17T17:45:15.891Z,27.90
2022-10-17T17:47:43.413Z,30.02
2022-10-17T17:50:11.299Z,27.98
2022-10-17T17:52:46.658Z,26.20
2022-10-17T17:55:14.907Z,29.98
2022-10-17T17:57:42.937Z,28.25
2022-10-17T18:00:15.849Z,29.40
2022-10-17T18:02:45.460Z,34.45
2022-10-17T18:05:14.055Z,36.58
2022-10-17T18:07:42.094Z,37.53
2022-10-17T18:12:40.490Z,37.55
2022-10-17T18:15:09.047Z,38.23
2022-10-17T18:17:38.934Z,34.10
2022-10-17T18:20:08.225Z,33.90
2022-10-17T18:22:36.184Z,35.80
2022-10-17T18:25:06.070Z,37.38
2022-10-17T18:27:33.873Z,37.17
2022-10-17T18:30:01.535Z,40.58
2022-10-17T18:32:33.663Z,41.75
2022-10-17T18:35:01.746Z,44.40
2022-10-17T18:37:29.885Z,40.95
2022-10-17T18:39:58.164Z,37.65
2022-10-17T18:42:26.041Z,39.13
2022-10-17T18:44:53.959Z,40.25
2022-10-17T18:47:24.766Z,38.98
2022-10-17T18:49:53.058Z,37.40
2022-10-17T18:52:20.546Z,38.42
2022-10-17T18:54:48.518Z,37.48
2022-10-17T18:57:21.474Z,38.48
2022-10-17T18:59:49.023Z,39.83
2022-10-17T19:02:16.790Z,38.80
2022-10-17T19:04:44.956Z,38.38
2022-10-17T19:07:12.560Z,40.95
2022-10-17T19:09:40.275Z,43.10
2022-10-17T19:12:08.167Z,43.40
2022-10-17T19:14:38.170Z,43.52
2022-10-17T19:17:06.045Z,40.92
2022-10-17T19:19:34.572Z,41.77
2022-10-17T19:22:03.707Z,38.65
2022-10-17T19:24:31.614Z,39.60
2022-10-17T19:27:01.908Z,34.92
2022-10-17T19:29:31.374Z,30.40
2022-10-17T19:32:00.463Z,31.87
2022-10-17T19:34:28.705Z,31.07
2022-10-17T19:36:56.844Z,31.52
2022-10-17T19:39:26.015Z,31.82
2022-10-17T19:41:53.701Z,31.93
2022-10-17T19:44:21.462Z,31.87
2022-10-17T19:46:49.537Z,31.97
2022-10-17T19:49:17.851Z,31.07
2022-10-17T19:51:45.812Z,31.60
2022-10-17T19:54:14.701Z,29.50
2022-10-17T19:56:42.904Z,29.82
2022-10-17T19:59:14.714Z,30.72
2022-10-17T20:01:43.173Z,29.72
2022-10-17T20:04:12.300Z,27.32
2022-10-17T20:06:41.305Z,26.93
2022-10-17T20:09:13.957Z,26.20
2022-10-17T20:11:40.560Z,25.02
2022-10-17T20:14:08.620Z,27.25
2022-10-17T20:16:36.729Z,26.50
2022-10-17T20:19:08.974Z,25.27
2022-10-17T20:21:39.043Z,26.48
2022-10-17T20:24:11.737Z,25.08
2022-10-17T20:26:40.716Z,26.25
2022-10-17T20:29:16.612Z,26.15
2022-10-17T20:31:45.980Z,25.60
2022-10-17T20:34:16.186Z,24.47
2022-10-17T20:36:44.218Z,27.30
2022-10-17T20:39:14.392Z,23.50
2022-10-17T20:41:43.156Z,24.40
2022-10-17T20:44:12.090Z,24.45
2022-10-17T20:46:45.217Z,25.23
2022-10-17T20:49:14.625Z,22.58
2022-10-17T20:51:42.555Z,23.92
2022-10-17T20:54:11.312Z,26.02
2022-10-17T20:56:39.297Z,25.43
2022-10-17T20:59:11.837Z,25.27
2022-10-17T21:01:40.106Z,23.10
2022-10-17T21:04:40.594Z,23.38
2022-10-17T21:06:37.986Z,21.68
2022-10-17T21:09:06.876Z,20.80
2022-10-17T21:11:34.588Z,21.40
2022-10-17T21:14:05.640Z,20.85
2022-10-17T21:16:36.192Z,18.82
2022-10-17T21:19:05.655Z,18.35
2022-10-17T21:21:37.093Z,18.98
2022-10-17T21:24:11.534Z,17.52
2022-10-17T21:26:40.904Z,19.63
2022-10-17T21:29:13.281Z,19.67
2022-10-17T21:31:43.752Z,19.40
2022-10-17T21:34:21.443Z,18.95
2022-10-17T21:36:49.383Z,20.37
2022-10-17T21:39:17.844Z,20.97
2022-10-17T21:41:45.656Z,21.50
2022-10-17T21:44:20.778Z,22.48
2022-10-17T21:49:20.348Z,22.30
2022-10-17T21:51:48.604Z,21.87
2022-10-17T21:54:18.436Z,20.25
2022-10-17T21:56:46.662Z,19.10
2022-10-17T21:59:14.355Z,20.30
2022-10-17T22:01:45.059Z,21.85
2022-10-17T22:04:16.834Z,25.60
2022-10-17T22:06:46.743Z,20.32
2022-10-17T22:09:19.912Z,27.90
2022-10-17T22:11:52.553Z,28.12
2022-10-17T22:14:24.121Z,24.00
2022-10-17T22:16:52.553Z,23.15
2022-10-17T22:19:24.483Z,19.12
2022-10-17T22:21:52.787Z,17.45
2022-10-17T22:26:48.939Z,15.30
2022-10-17T22:29:17.249Z,15.53
2022-10-17T22:31:45.369Z,15.50
2022-10-17T22:34:15.875Z,14.87
2022-10-17T22:36:44.202Z,14.63
2022-10-17T22:39:12.341Z,16.02
2022-10-17T22:41:40.354Z,14.75
2022-10-17T22:44:08.269Z,14.10
2022-10-17T22:46:36.301Z,13.95
2022-10-17T22:49:04.175Z,13.38
2022-10-17T22:51:32.070Z,13.93
2022-10-17T22:54:00.207Z,14.20
2022-10-17T22:56:28.035Z,13.20
2022-10-17T22:58:55.953Z,13.35
2022-10-17T23:01:25.473Z,13.30
2022-10-17T23:03:53.311Z,12.80
2022-10-17T23:06:21.637Z,12.03
2022-10-17T23:08:49.806Z,13.43
2022-10-17T23:11:17.941Z,12.53
2022-10-17T23:13:45.710Z,11.63
2022-10-17T23:16:13.848Z,12.18
2022-10-17T23:18:43.173Z,12.05
2022-10-17T23:21:11.452Z,11.40
2022-10-17T23:23:38.788Z,11.25
2022-10-17T23:26:10.645Z,12.20
2022-10-17T23:28:39.485Z,11.85
2022-10-17T23:31:16.406Z,11.22
2022-10-17T23:33:47.919Z,11.53
2022-10-17T23:36:20.385Z,11.85
2022-10-17T23:38:48.943Z,11.75
2022-10-17T23:41:17.201Z,11.85
2022-10-17T23:43:45.225Z,11.63
2022-10-17T23:46:13.561Z,11.43
2022-10-17T23:48:41.592Z,11.65
2022-10-17T23:51:10.416Z,12.28
2022-10-17T23:53:39.335Z,11.83
2022-10-17T23:56:09.407Z,11.30
2022-10-17T23:58:38.696Z,12.33
